createdAt,value
2019-01-13T00:02:02.844Z,90.10
2019-01-13T00:04:31.959Z,90.20
2019-01-13T00:07:03.379Z,90.50
2019-01-13T00:09:34.836Z,90.40
2019-01-13T00:12:06.883Z,90.40
2019-01-13T00:14:38.940Z,90.60
2019-01-13T00:17:10.802Z,90.80
2019-01-13T00:22:36.147Z,91.00
2019-01-13T00:25:05.962Z,91.20
2019-01-13T00:27:40.414Z,91.10
2019-01-13T00:30:19.280Z,90.80
2019-01-13T00:33:04.785Z,90.80
2019-01-13T00:35:35.436Z,91.50
2019-01-13T00:38:05.184Z,91.60
2019-01-13T00:40:34.517Z,91.60
2019-01-13T00:43:04.005Z,91.90
2019-01-13T00:45:36.035Z,91.70
2019-01-13T00:48:05.904Z,91.80
2019-01-13T00:50:37.335Z,92.00
2019-01-13T00:53:06.368Z,91.80
2019-01-13T00:55:35.893Z,91.80
2019-01-13T00:58:07.407Z,91.70
2019-01-13T01:00:43.258Z,92.10
2019-01-13T01:03:11.887Z,92.40
2019-01-13T01:06:04.100Z,92.30
2019-01-13T01:08:33.428Z,92.40
2019-01-13T01:11:05.471Z,92.80
2019-01-13T01:13:45.490Z,93.20
2019-01-13T01:16:34.177Z,92.90
2019-01-13T01:19:03.531Z,92.70
2019-01-13T01:21:36.900Z,93.30
2019-01-13T01:24:28.432Z,92.80
2019-01-13T01:27:03.269Z,93.50
2019-01-13T01:29:32.664Z,93.40
2019-01-13T01:32:16.384Z,93.70
2019-01-13T01:35:03.262Z,93.30
2019-01-13T01:37:32.695Z,93.60
2019-01-13T01:40:06.899Z,93.60
2019-01-13T01:42:36.283Z,94.00
2019-01-13T01:45:08.528Z,93.70
2019-01-13T01:48:10.756Z,93.40
2019-01-13T01:51:00.141Z,93.40
2019-01-13T01:53:38.208Z,93.60
2019-01-13T01:56:10.923Z,93.70
2019-01-13T01:58:41.889Z,93.40
2019-01-13T02:02:00.267Z,93.50
2019-01-13T02:05:00.910Z,93.60
2019-01-13T02:07:32.912Z,93.20
2019-01-13T02:10:32.354Z,93.40
2019-01-13T02:13:03.897Z,93.00
2019-01-13T02:15:33.096Z,93.20
2019-01-13T02:18:05.648Z,93.30
2019-01-13T02:21:05.956Z,93.20
2019-01-13T02:23:35.684Z,93.20
2019-01-13T02:26:04.956Z,93.40
2019-01-13T02:28:36.235Z,93.30
2019-01-13T02:31:05.867Z,93.00
2019-01-13T02:36:40.824Z,92.90
2019-01-13T02:39:34.261Z,92.90
2019-01-13T02:42:06.990Z,93.00
2019-01-13T02:44:38.960Z,92.60
2019-01-13T02:47:30.808Z,92.80
2019-01-13T02:50:05.794Z,92.80
2019-01-13T02:53:03.777Z,92.40
2019-01-13T02:55:34.235Z,92.40
2019-01-13T02:58:11.120Z,92.70
2019-01-13T03:01:01.681Z,92.20
2019-01-13T03:03:36.963Z,92.60
2019-01-13T03:06:13.105Z,92.40
2019-01-13T03:09:03.256Z,92.80
2019-01-13T03:11:34.290Z,92.70
2019-01-13T03:14:03.992Z,92.60
2019-01-13T03:19:31.524Z,92.50
2019-01-13T03:22:15.262Z,92.80
2019-01-13T03:25:02.683Z,92.90
2019-01-13T03:27:35.260Z,92.80
2019-01-13T03:30:07.325Z,92.30
2019-01-13T03:32:36.736Z,92.80
2019-01-13T03:35:10.501Z,92.70
2019-01-13T03:37:43.580Z,92.40
2019-01-13T03:40:45.593Z,92.50
2019-01-13T03:43:34.402Z,92.10
2019-01-13T03:46:03.608Z,92.60
2019-01-13T03:48:33.181Z,92.50
2019-01-13T03:51:11.528Z,92.40
2019-01-13T03:54:04.466Z,92.10
2019-01-13T03:56:33.984Z,92.30
2019-01-13T03:59:13.973Z,92.50
2019-01-13T04:01:59.786Z,92.10
2019-01-13T04:04:37.563Z,92.00
2019-01-13T04:07:12.450Z,92.20
2019-01-13T04:10:04.094Z,92.30
2019-01-13T04:12:34.754Z,92.00
2019-01-13T04:15:33.727Z,92.30
2019-01-13T04:17:57.326Z,92.30
2019-01-13T04:21:04.841Z,92.10
2019-01-13T04:24:00.726Z,91.70
2019-01-13T04:27:05.906Z,91.90
2019-01-13T04:29:29.617Z,91.80
2019-01-13T04:35:13.198Z,91.70
2019-01-13T04:41:10.810Z,91.80
2019-01-13T04:44:01.892Z,91.70
2019-01-13T04:46:33.978Z,92.20
2019-01-13T04:49:11.912Z,92.40
2019-01-13T04:52:02.407Z,92.20
2019-01-13T04:55:04.582Z,92.30
2019-01-13T04:57:33.194Z,91.80
2019-01-13T05:00:10.008Z,91.90
2019-01-13T05:02:52.946Z,92.00
2019-01-13T05:05:54.056Z,91.70
2019-01-13T05:08:35.902Z,92.00
2019-01-13T05:11:06.817Z,91.40
2019-01-13T05:13:36.170Z,91.50
2019-01-13T05:16:05.263Z,91.50
2019-01-13T05:18:36.397Z,91.20
2019-01-13T05:21:06.027Z,91.40
2019-01-13T05:23:37.986Z,91.50
2019-01-13T05:26:07.278Z,91.30
2019-01-13T05:28:36.311Z,91.20
2019-01-13T05:31:05.403Z,91.10
2019-01-13T05:33:34.501Z,91.20
2019-01-13T05:36:04.028Z,91.20
2019-01-13T05:38:33.138Z,91.10
2019-01-13T05:41:02.512Z,90.70
2019-01-13T05:43:34.676Z,90.50
2019-01-13T05:46:03.813Z,90.20
2019-01-13T05:48:32.843Z,91.10
2019-01-13T05:51:04.641Z,90.40
2019-01-13T05:53:37.300Z,90.80
2019-01-13T05:56:06.602Z,90.30
2019-01-13T05:58:35.895Z,90.50
2019-01-13T06:01:12.943Z,90.50
2019-01-13T06:03:42.373Z,90.20
2019-01-13T06:06:13.961Z,90.70
2019-01-13T06:08:57.845Z,90.60
2019-01-13T06:11:32.735Z,90.20
2019-01-13T06:14:03.636Z,90.10
2019-01-13T06:16:32.811Z,90.30
2019-01-13T06:19:05.155Z,90.40
2019-01-13T06:21:34.462Z,90.10
2019-01-13T06:24:03.611Z,90.60
2019-01-13T06:26:34.825Z,90.30
2019-01-13T06:29:03.856Z,90.00
2019-01-13T06:31:33.516Z,90.30
2019-01-13T06:34:02.706Z,90.10
2019-01-13T06:36:34.949Z,90.10
2019-01-13T06:39:06.310Z,89.70
2019-01-13T06:41:35.365Z,90.30
2019-01-13T06:44:04.709Z,90.50
2019-01-13T06:46:34.195Z,90.60
2019-01-13T06:49:03.556Z,91.10
2019-01-13T06:51:32.574Z,91.50
2019-01-13T06:54:04.685Z,91.70
2019-01-13T06:56:36.878Z,91.70
2019-01-13T06:59:06.018Z,92.30
2019-01-13T07:01:35.268Z,92.30
2019-01-13T07:04:07.819Z,92.60
2019-01-13T07:06:36.888Z,92.90
2019-01-13T07:09:08.142Z,93.20
2019-01-13T07:11:37.301Z,92.80
2019-01-13T07:14:06.544Z,93.30
2019-01-13T07:16:35.957Z,93.60
2019-01-13T07:19:04.933Z,93.60
2019-01-13T07:21:37.099Z,93.60
2019-01-13T07:24:06.162Z,93.60
2019-01-13T07:26:35.645Z,93.70
2019-01-13T07:29:04.724Z,93.60
2019-01-13T07:31:33.843Z,93.80
2019-01-13T07:34:02.998Z,93.90
2019-01-13T07:36:35.008Z,94.00
2019-01-13T07:39:06.883Z,93.60
2019-01-13T07:41:36.072Z,93.70
2019-01-13T07:44:05.439Z,93.70
2019-01-13T07:46:34.473Z,93.80
2019-01-13T07:49:03.786Z,93.90
2019-01-13T07:51:33.080Z,93.80
2019-01-13T07:54:02.337Z,94.00
2019-01-13T07:56:34.507Z,93.90
2019-01-13T07:59:03.912Z,93.70
2019-01-13T08:01:33.695Z,94.00
2019-01-13T08:04:04.497Z,94.00
2019-01-13T08:06:33.482Z,93.80
2019-01-13T08:09:02.516Z,93.90
2019-01-13T08:11:32.217Z,93.70
2019-01-13T08:14:03.203Z,93.80
2019-01-13T08:16:34.680Z,93.30
2019-01-13T08:19:03.899Z,93.60
2019-01-13T08:21:38.186Z,93.40
2019-01-13T08:24:08.209Z,93.30
2019-01-13T08:26:37.369Z,93.70
2019-01-13T08:29:12.703Z,93.60
2019-01-13T08:31:44.576Z,93.60
2019-01-13T08:34:13.911Z,93.60
2019-01-13T08:36:44.332Z,93.30
2019-01-13T08:39:13.844Z,93.30
2019-01-13T08:44:40.627Z,93.10
2019-01-13T08:47:13.929Z,93.00
2019-01-13T08:50:05.976Z,92.60
2019-01-13T08:52:35.104Z,92.60
2019-01-13T08:55:04.958Z,92.90
2019-01-13T08:57:34.003Z,92.70
2019-01-13T09:00:06.077Z,92.60
2019-01-13T09:02:37.582Z,92.70
2019-01-13T09:05:07.113Z,92.50
2019-01-13T09:10:34.019Z,92.40
2019-01-13T09:13:04.482Z,92.30
2019-01-13T09:15:36.597Z,92.60
2019-01-13T09:18:05.737Z,92.50
2019-01-13T09:20:34.986Z,92.70
2019-01-13T09:23:08.704Z,92.70
2019-01-13T09:25:38.391Z,92.40
2019-01-13T09:28:10.390Z,92.40
2019-01-13T09:30:40.142Z,92.40
2019-01-13T09:33:15.434Z,92.80
2019-01-13T09:35:40.812Z,93.00
2019-01-13T09:38:10.521Z,92.80
2019-01-13T09:40:51.103Z,92.70
2019-01-13T09:43:28.739Z,92.80
2019-01-13T09:45:57.852Z,92.80
2019-01-13T09:48:26.822Z,92.50
2019-01-13T09:50:55.862Z,92.50
2019-01-13T09:53:25.358Z,92.50
2019-01-13T09:55:54.347Z,92.20
2019-01-13T09:58:23.192Z,92.60
2019-01-13T10:00:52.139Z,93.10
2019-01-13T10:03:21.019Z,93.30
2019-01-13T10:05:49.983Z,93.90
2019-01-13T10:08:30.667Z,93.60
2019-01-13T10:10:59.679Z,94.00
2019-01-13T10:13:28.582Z,94.30
2019-01-13T10:15:57.442Z,94.50
2019-01-13T10:18:26.353Z,94.30
2019-01-13T10:20:56.180Z,94.40
2019-01-13T10:23:25.797Z,94.40
2019-01-13T10:25:57.848Z,94.40
2019-01-13T10:28:28.895Z,94.10
2019-01-13T10:31:03.135Z,94.10
2019-01-13T10:33:28.638Z,94.10
2019-01-13T10:35:57.895Z,94.30
2019-01-13T10:38:26.712Z,94.10
2019-01-13T10:40:55.600Z,94.00
2019-01-13T10:43:24.728Z,93.90
2019-01-13T10:45:53.518Z,93.80
2019-01-13T10:48:22.421Z,94.00
2019-01-13T10:50:51.363Z,94.10
2019-01-13T10:53:22.330Z,94.20
2019-01-13T10:55:51.307Z,94.20
2019-01-13T10:58:20.491Z,94.20
2019-01-13T11:00:49.716Z,94.20
2019-01-13T11:03:19.471Z,94.30
2019-01-13T11:05:50.438Z,94.50
2019-01-13T11:08:21.696Z,94.50
2019-01-13T11:10:50.712Z,94.60
2019-01-13T11:13:21.845Z,94.40
2019-01-13T11:15:51.110Z,94.40
2019-01-13T11:18:22.974Z,94.30
2019-01-13T11:20:52.232Z,94.40
2019-01-13T11:23:21.547Z,94.50
2019-01-13T11:25:50.502Z,94.60
2019-01-13T11:28:23.212Z,94.60
2019-01-13T11:31:01.472Z,94.80
2019-01-13T11:33:30.840Z,95.10
2019-01-13T11:36:03.012Z,95.10
2019-01-13T11:38:32.493Z,95.10
2019-01-13T11:41:01.533Z,95.50
2019-01-13T11:43:30.618Z,95.30
2019-01-13T11:46:01.681Z,95.40
2019-01-13T11:48:30.524Z,95.50
2019-01-13T11:50:59.885Z,95.30
2019-01-13T11:53:31.240Z,95.30
2019-01-13T11:56:03.126Z,95.10
2019-01-13T11:58:32.467Z,95.30
2019-01-13T12:01:01.588Z,95.30
2019-01-13T12:03:30.463Z,95.60
2019-01-13T12:06:00.627Z,95.30
2019-01-13T12:08:30.120Z,95.20
2019-01-13T12:10:59.081Z,95.40
2019-01-13T12:13:28.000Z,95.50
2019-01-13T12:15:58.764Z,95.40
2019-01-13T12:18:28.057Z,95.40
2019-01-13T12:20:57.203Z,95.30
2019-01-13T12:23:26.527Z,95.50
2019-01-13T12:25:55.429Z,95.70
2019-01-13T12:28:24.942Z,95.50
2019-01-13T12:30:54.462Z,95.60
2019-01-13T12:33:24.590Z,95.90
2019-01-13T12:35:53.909Z,96.30
2019-01-13T12:38:23.586Z,96.10
2019-01-13T12:40:52.843Z,96.00
2019-01-13T12:43:26.077Z,96.00
2019-01-13T12:46:01.674Z,96.00
2019-01-13T12:48:33.021Z,95.80
2019-01-13T12:51:02.165Z,95.80
2019-01-13T12:53:31.499Z,96.20
2019-01-13T12:56:03.879Z,96.20
2019-01-13T12:58:33.435Z,96.10
2019-01-13T13:01:04.904Z,96.40
2019-01-13T13:03:36.931Z,96.40
2019-01-13T13:06:06.126Z,96.10
2019-01-13T13:08:35.192Z,96.40
2019-01-13T13:11:04.689Z,96.30
2019-01-13T13:13:33.877Z,96.20
2019-01-13T13:16:03.125Z,96.20
2019-01-13T13:18:32.669Z,96.20
2019-01-13T13:21:03.505Z,96.50
2019-01-13T13:23:32.537Z,96.40
2019-01-13T13:26:01.487Z,96.40
2019-01-13T13:28:33.529Z,96.20
2019-01-13T13:31:02.829Z,96.10
2019-01-13T13:33:38.804Z,96.30
2019-01-13T13:36:11.568Z,96.20
2019-01-13T13:38:40.989Z,96.00
2019-01-13T13:41:10.424Z,96.50
2019-01-13T13:43:38.126Z,96.50
2019-01-13T13:46:08.355Z,96.20
2019-01-13T13:48:37.593Z,96.40
2019-01-13T13:51:06.975Z,96.60
2019-01-13T13:53:36.157Z,96.70
2019-01-13T13:56:05.898Z,96.50
2019-01-13T13:58:35.306Z,96.80
2019-01-13T14:01:05.199Z,96.60
2019-01-13T14:03:34.312Z,96.50
2019-01-13T14:06:03.645Z,96.70
2019-01-13T14:08:35.497Z,96.60
2019-01-13T14:11:04.869Z,96.30
2019-01-13T14:13:34.251Z,96.50
2019-01-13T14:16:03.619Z,96.00
2019-01-13T14:18:32.902Z,95.80
2019-01-13T14:21:01.923Z,95.90
2019-01-13T14:23:35.548Z,96.00
2019-01-13T14:26:07.749Z,95.90
2019-01-13T14:28:39.326Z,96.30
2019-01-13T14:31:09.451Z,95.90
2019-01-13T14:33:41.367Z,96.20
2019-01-13T14:36:12.470Z,96.00
2019-01-13T14:39:02.750Z,96.20
2019-01-13T14:41:40.560Z,96.10
2019-01-13T14:44:14.225Z,96.30
2019-01-13T14:46:44.118Z,96.40
2019-01-13T14:49:14.950Z,96.60
2019-01-13T14:51:45.236Z,96.40
2019-01-13T14:54:14.556Z,96.60
2019-01-13T14:56:55.863Z,96.60
2019-01-13T14:59:26.126Z,96.30
2019-01-13T15:01:59.013Z,96.60
2019-01-13T15:04:36.020Z,96.30
2019-01-13T15:07:21.875Z,96.50
2019-01-13T15:09:55.287Z,96.40
2019-01-13T15:12:32.444Z,96.10
2019-01-13T15:18:09.527Z,96.40
2019-01-13T15:21:08.403Z,96.20
2019-01-13T15:23:42.622Z,96.40
2019-01-13T15:26:12.786Z,96.10
2019-01-13T15:28:48.416Z,96.20
2019-01-13T15:31:34.754Z,96.30
2019-01-13T15:34:07.254Z,96.20
2019-01-13T15:36:37.494Z,96.50
2019-01-13T15:39:12.986Z,96.60
2019-01-13T15:41:44.497Z,96.40
2019-01-13T15:44:15.928Z,96.80
2019-01-13T15:46:54.870Z,96.90
2019-01-13T15:49:29.071Z,96.60
2019-01-13T15:52:06.320Z,96.80
2019-01-13T15:54:43.752Z,96.80
2019-01-13T15:57:13.261Z,96.70
2019-01-13T15:59:48.138Z,96.90
2019-01-13T16:02:22.186Z,96.80
2019-01-13T16:04:53.749Z,96.40
2019-01-13T16:07:23.502Z,96.20
2019-01-13T16:09:53.506Z,96.20
2019-01-13T16:12:24.231Z,96.30
2019-01-13T16:14:53.617Z,95.80
2019-01-13T16:17:23.657Z,96.10
2019-01-13T16:19:55.513Z,95.80
2019-01-13T16:22:31.816Z,95.80
2019-01-13T16:25:08.332Z,95.80
2019-01-13T16:27:39.713Z,95.90
2019-01-13T16:30:19.224Z,95.70
2019-01-13T16:32:49.399Z,95.30
2019-01-13T16:35:19.662Z,95.30
2019-01-13T16:37:51.882Z,95.30
2019-01-13T16:40:26.538Z,95.10
2019-01-13T16:42:57.695Z,95.10
2019-01-13T16:45:28.089Z,95.70
2019-01-13T16:47:57.843Z,95.80
2019-01-13T16:50:28.921Z,95.80
2019-01-13T16:52:59.681Z,94.80
2019-01-13T16:55:40.973Z,94.00
2019-01-13T16:58:12.085Z,93.40
2019-01-13T17:01:04.690Z,93.80
2019-01-13T17:03:37.998Z,94.50
2019-01-13T17:06:13.108Z,94.10
2019-01-13T17:08:47.302Z,94.60
2019-01-13T17:11:21.621Z,94.30
2019-01-13T17:13:51.196Z,94.00
2019-01-13T17:16:23.856Z,94.40
2019-01-13T17:18:53.438Z,94.40
2019-01-13T17:21:23.249Z,94.40
2019-01-13T17:23:52.675Z,93.30
2019-01-13T17:26:22.060Z,92.80
2019-01-13T17:28:51.299Z,92.80
2019-01-13T17:31:20.471Z,92.70
2019-01-13T17:33:50.074Z,92.40
2019-01-13T17:36:21.924Z,92.80
2019-01-13T17:38:51.663Z,92.90
2019-01-13T17:41:21.582Z,93.00
2019-01-13T17:43:51.669Z,93.20
2019-01-13T17:46:36.461Z,92.70
2019-01-13T17:49:11.972Z,92.50
2019-01-13T17:51:47.564Z,93.00
2019-01-13T17:54:17.679Z,93.30
2019-01-13T17:56:47.946Z,93.20
2019-01-13T17:59:20.501Z,93.20
2019-01-13T18:01:54.611Z,93.10
2019-01-13T18:04:24.628Z,92.80
2019-01-13T18:06:54.342Z,92.90
2019-01-13T18:09:24.104Z,93.00
2019-01-13T18:11:54.076Z,93.00
2019-01-13T18:14:24.602Z,93.30
2019-01-13T18:16:55.827Z,93.10
2019-01-13T18:19:27.917Z,93.10
2019-01-13T18:21:59.447Z,93.50
2019-01-13T18:24:28.672Z,92.90
2019-01-13T18:26:57.796Z,93.30
2019-01-13T18:29:27.010Z,93.40
2019-01-13T18:32:02.154Z,93.50
2019-01-13T18:34:31.127Z,93.20
2019-01-13T18:37:03.087Z,93.30
2019-01-13T18:39:35.431Z,93.30
2019-01-13T18:42:06.168Z,93.40
2019-01-13T18:44:36.152Z,93.10
2019-01-13T18:47:15.129Z,93.80
2019-01-13T18:49:47.079Z,93.70
2019-01-13T18:52:35.590Z,94.00
2019-01-13T18:55:07.709Z,93.40
2019-01-13T18:57:42.227Z,93.50
2019-01-13T19:00:20.166Z,93.10
2019-01-13T19:02:50.765Z,92.90
2019-01-13T19:05:26.857Z,93.50
2019-01-13T19:08:17.179Z,92.80
2019-01-13T19:11:07.745Z,92.70
2019-01-13T19:14:19.934Z,92.30
2019-01-13T19:17:08.353Z,92.30
2019-01-13T19:20:14.542Z,92.40
2019-01-13T19:22:48.130Z,92.30
2019-01-13T19:25:33.244Z,92.70
2019-01-13T19:28:00.154Z,92.20
2019-01-13T19:30:42.018Z,92.40
2019-01-13T19:33:15.094Z,91.90
2019-01-13T19:35:46.768Z,92.30
2019-01-13T19:38:30.076Z,92.20
2019-01-13T19:41:01.832Z,92.20
2019-01-13T19:43:34.217Z,92.60
2019-01-13T19:46:11.947Z,92.90
2019-01-13T19:48:43.859Z,93.30
2019-01-13T19:51:17.658Z,93.30
2019-01-13T19:54:06.826Z,93.00
2019-01-13T19:56:47.993Z,91.80
2019-01-13T19:59:18.946Z,91.80
2019-01-13T20:05:11.912Z,91.40
2019-01-13T20:07:47.466Z,91.20
2019-01-13T20:10:38.224Z,91.40
2019-01-13T20:13:27.515Z,91.10
2019-01-13T20:16:13.667Z,92.30
2019-01-13T20:18:45.892Z,90.10
2019-01-13T20:21:31.245Z,89.70
2019-01-13T20:24:07.115Z,89.90
2019-01-13T20:26:40.353Z,89.20
2019-01-13T20:29:10.989Z,90.00
2019-01-13T20:31:40.284Z,90.10
2019-01-13T20:34:09.866Z,89.30
2019-01-13T20:36:50.152Z,90.00
2019-01-13T20:39:20.989Z,90.00
2019-01-13T20:41:51.771Z,90.20
2019-01-13T20:44:21.385Z,90.50
2019-01-13T20:46:52.360Z,89.90
2019-01-13T20:49:22.499Z,89.80
2019-01-13T20:51:55.589Z,90.30
2019-01-13T20:54:28.836Z,89.80
2019-01-13T20:57:07.379Z,89.90
2019-01-13T20:59:38.166Z,90.50
2019-01-13T21:02:32.925Z,90.30
2019-01-13T21:05:02.856Z,89.20
2019-01-13T21:07:33.772Z,89.30
2019-01-13T21:10:08.266Z,89.80
2019-01-13T21:12:43.951Z,89.00
2019-01-13T21:15:17.988Z,89.70
2019-01-13T21:17:48.704Z,88.60
2019-01-13T21:20:23.168Z,90.00
2019-01-13T21:23:00.046Z,89.20
2019-01-13T21:25:40.408Z,89.40
2019-01-13T21:28:17.665Z,89.80
2019-01-13T21:30:47.760Z,89.00
2019-01-13T21:33:24.874Z,88.80
2019-01-13T21:35:57.047Z,88.20
2019-01-13T21:38:33.284Z,88.60
2019-01-13T21:41:20.559Z,88.10
2019-01-13T21:43:51.022Z,87.90
2019-01-13T21:46:25.934Z,87.20
2019-01-13T21:49:32.776Z,86.20
2019-01-13T21:52:06.682Z,86.90
2019-01-13T21:54:42.152Z,84.80
2019-01-13T21:57:11.481Z,85.80
2019-01-13T21:59:41.199Z,85.80
2019-01-13T22:02:12.547Z,85.30
2019-01-13T22:04:42.866Z,85.20
2019-01-13T22:07:21.859Z,87.30
2019-01-13T22:10:12.232Z,86.50
2019-01-13T22:12:43.687Z,86.80
2019-01-13T22:15:17.383Z,87.90
2019-01-13T22:17:46.581Z,88.40
2019-01-13T22:20:18.360Z,88.50
2019-01-13T22:22:48.053Z,87.90
2019-01-13T22:25:18.273Z,87.90
2019-01-13T22:27:47.784Z,87.90
2019-01-13T22:30:18.986Z,88.00
2019-01-13T22:32:48.403Z,87.80
2019-01-13T22:35:18.453Z,87.80
2019-01-13T22:37:55.659Z,88.20
2019-01-13T22:40:21.564Z,87.80
2019-01-13T22:42:50.885Z,86.50
2019-01-13T22:45:22.383Z,86.90
2019-01-13T22:47:51.562Z,86.50
2019-01-13T22:50:21.241Z,86.20
2019-01-13T22:53:03.908Z,85.90
2019-01-13T22:55:33.511Z,85.20
2019-01-13T22:58:05.022Z,85.20
2019-01-13T23:01:03.409Z,85.00
2019-01-13T23:03:32.690Z,85.40
2019-01-13T23:06:05.551Z,85.80
2019-01-13T23:08:35.513Z,85.00
2019-01-13T23:11:05.041Z,85.50
2019-01-13T23:13:34.418Z,85.40
2019-01-13T23:16:03.923Z,85.70
2019-01-13T23:18:33.369Z,86.40
2019-01-13T23:21:03.509Z,86.40
2019-01-13T23:23:34.950Z,85.00
2019-01-13T23:26:05.641Z,85.10
2019-01-13T23:28:35.144Z,85.00
2019-01-13T23:31:04.818Z,85.40
2019-01-13T23:33:40.264Z,85.30
2019-01-13T23:36:09.559Z,83.60
2019-01-13T23:38:38.936Z,84.60
2019-01-13T23:41:08.224Z,83.60
2019-01-13T23:43:37.618Z,83.10
2019-01-13T23:46:07.111Z,83.60
2019-01-13T23:48:36.625Z,83.40
2019-01-13T23:51:08.892Z,80.80
2019-01-13T23:53:38.288Z,80.70
2019-01-13T23:56:07.745Z,79.30
2019-01-13T23:58:37.050Z,79.00
